createdAt,value
2016-04-11T00:00:15.084Z,957.03
2016-04-11T00:01:15.086Z,957
2016-04-11T00:02:15.089Z,956.97
2016-04-11T00:03:15.092Z,956.97
2016-04-11T00:04:15.109Z,956.98
2016-04-11T00:05:15.112Z,956.95
2016-04-11T00:06:15.114Z,956.97
2016-04-11T00:07:15.118Z,956.97
2016-04-11T00:08:15.120Z,956.99
2016-04-11T00:09:15.123Z,957.02
2016-04-11T00:10:15.142Z,957
2016-04-11T00:11:15.145Z,957.03
2016-04-11T00:12:15.147Z,957.04
2016-04-11T00:13:15.164Z,957.05
2016-04-11T00:14:15.152Z,957.07
2016-04-11T00:15:15.156Z,957.04
2016-04-11T00:16:15.159Z,957.03
2016-04-11T00:17:15.161Z,957.03
2016-04-11T00:18:15.179Z,957.02
2016-04-11T00:19:15.182Z,957.01
2016-04-11T00:20:15.185Z,957.05
2016-04-11T00:21:15.187Z,957.06
2016-04-11T00:22:15.190Z,957.06
2016-04-11T00:23:15.193Z,957.09
2016-04-11T00:24:15.211Z,957.07
2016-04-11T00:25:15.214Z,957.11
2016-04-11T00:26:15.216Z,957.1
2016-04-11T00:27:15.219Z,957.09
2016-04-11T00:28:15.222Z,957.1
2016-04-11T00:29:15.225Z,957.12
2016-04-11T00:30:15.227Z,957.12
2016-04-11T00:31:15.246Z,957.11
2016-04-11T00:32:15.249Z,957.12
2016-04-11T00:33:15.260Z,957.07
2016-04-11T00:34:15.255Z,957.08
2016-04-11T00:35:15.258Z,957.09
2016-04-11T00:36:15.265Z,957.06
2016-04-11T00:37:15.268Z,957.06
2016-04-11T00:38:15.271Z,957.1
2016-04-11T00:39:15.274Z,957.08
2016-04-11T00:40:15.276Z,957.1
2016-04-11T00:41:15.279Z,957.08
2016-04-11T00:42:15.296Z,957.1
2016-04-11T00:43:15.284Z,957.15
2016-04-11T00:44:15.302Z,957.11
2016-04-11T00:45:15.305Z,957.15
2016-04-11T00:46:15.307Z,957.17
2016-04-11T00:47:15.326Z,957.12
2016-04-11T00:48:15.313Z,957.15
2016-04-11T00:49:15.316Z,957.15
2016-04-11T00:50:15.334Z,957.18
2016-04-11T00:51:15.337Z,957.16
2016-04-11T00:52:15.340Z,957.16
2016-04-11T00:53:15.358Z,957.13
2016-04-11T00:54:15.345Z,957.14
2016-04-11T00:55:15.348Z,957.12
2016-04-11T00:56:15.365Z,957.19
2016-04-11T00:57:15.368Z,957.17
2016-04-11T00:58:15.371Z,957.19
2016-04-11T00:59:15.373Z,957.2
2016-04-11T01:00:15.376Z,957.19
2016-04-11T01:01:15.379Z,957.16
2016-04-11T01:02:15.397Z,957.24
2016-04-11T01:03:15.400Z,957.2
2016-04-11T01:04:15.402Z,957.21
2016-04-11T01:05:15.405Z,957.24
2016-04-11T01:06:15.408Z,957.22
2016-04-11T01:07:15.411Z,957.26
2016-04-11T01:08:15.414Z,957.25
2016-04-11T01:09:15.433Z,957.23
2016-04-11T01:10:15.440Z,957.28
2016-04-11T01:11:15.443Z,957.27
2016-04-11T01:12:15.445Z,957.27
2016-04-11T01:13:15.448Z,957.31
2016-04-11T01:14:15.451Z,957.3
2016-04-11T01:15:15.453Z,957.31
2016-04-11T01:16:15.457Z,957.29
2016-04-11T01:17:15.459Z,957.37
2016-04-11T01:18:15.477Z,957.34
2016-04-11T01:19:15.479Z,957.36
2016-04-11T01:20:15.482Z,957.35
2016-04-11T01:21:15.485Z,957.36
2016-04-11T01:22:15.487Z,957.3
2016-04-11T01:23:15.490Z,957.31
2016-04-11T01:24:15.508Z,957.31
2016-04-11T01:25:15.511Z,957.29
2016-04-11T01:26:15.514Z,957.28
2016-04-11T01:27:15.517Z,957.34
2016-04-11T01:28:15.519Z,957.31
2016-04-11T01:29:15.522Z,957.36
2016-04-11T01:30:15.525Z,957.31
2016-04-11T01:31:15.527Z,957.31
2016-04-11T01:32:15.545Z,957.27
2016-04-11T01:33:15.548Z,957.25
2016-04-11T01:34:15.551Z,957.22
2016-04-11T01:35:15.569Z,957.2
2016-04-11T01:36:15.556Z,957.25
2016-04-11T01:37:15.574Z,957.22
2016-04-11T01:38:15.577Z,957.23
2016-04-11T01:39:15.580Z,957.2
2016-04-11T01:40:15.582Z,957.2
2016-04-11T01:41:15.586Z,957.19
2016-04-11T01:42:15.588Z,957.25
2016-04-11T01:43:15.591Z,957.2
2016-04-11T01:44:15.609Z,957.21
2016-04-11T01:45:15.612Z,957.22
2016-04-11T01:46:15.615Z,957.19
2016-04-11T01:47:15.618Z,957.24
2016-04-11T01:48:15.620Z,957.2
2016-04-11T01:49:15.623Z,957.25
2016-04-11T01:50:15.640Z,957.23
2016-04-11T01:51:15.643Z,957.21
2016-04-11T01:52:15.646Z,957.24
2016-04-11T01:53:15.665Z,957.26
2016-04-11T01:54:15.652Z,957.24
2016-04-11T01:55:15.654Z,957.22
2016-04-11T01:56:15.657Z,957.24
2016-04-11T01:57:15.800Z,957.22
2016-04-11T01:58:15.678Z,957.22
2016-04-11T01:59:15.681Z,957.2
2016-04-11T02:00:15.683Z,957.2
2016-04-11T02:01:15.686Z,957.22
2016-04-11T02:02:15.688Z,957.23
2016-04-11T02:03:15.691Z,957.22
2016-04-11T02:04:15.694Z,957.25
2016-04-11T02:05:15.713Z,957.24
2016-04-11T02:06:15.715Z,957.22
2016-04-11T02:07:15.719Z,957.23
2016-04-11T02:08:15.721Z,957.26
2016-04-11T02:09:15.724Z,957.23
2016-04-11T02:10:15.726Z,957.24
2016-04-11T02:11:15.729Z,957.23
2016-04-11T02:12:15.763Z,957.25
2016-04-11T02:13:15.749Z,957.23
2016-04-11T02:14:15.752Z,957.28
2016-04-11T02:15:15.754Z,957.22
2016-04-11T02:16:15.758Z,957.22
2016-04-11T02:17:15.760Z,957.24
2016-04-11T02:18:15.763Z,957.25
2016-04-11T02:19:15.781Z,957.23
2016-04-11T02:20:15.785Z,957.27
2016-04-11T02:21:15.787Z,957.28
2016-04-11T02:22:15.789Z,957.27
2016-04-11T02:23:15.792Z,957.25
2016-04-11T02:24:15.795Z,957.29
2016-04-11T02:25:15.798Z,957.25
2016-04-11T02:26:15.800Z,957.28
2016-04-11T02:27:15.834Z,957.28
2016-04-11T02:28:15.820Z,957.28
2016-04-11T02:29:15.823Z,957.29
2016-04-11T02:30:15.826Z,957.31
2016-04-11T02:31:15.845Z,957.24
2016-04-11T02:32:15.831Z,957.32
2016-04-11T02:33:15.851Z,957.34
2016-04-11T02:34:15.853Z,957.29
2016-04-11T02:35:15.856Z,957.31
2016-04-11T02:36:15.858Z,957.3
2016-04-11T02:37:15.861Z,957.3
2016-04-11T02:38:15.864Z,957.3
2016-04-11T02:39:15.883Z,957.28
2016-04-11T02:40:15.885Z,957.29
2016-04-11T02:41:15.888Z,957.3
2016-04-11T02:42:15.905Z,957.27
2016-04-11T02:43:15.893Z,957.28
2016-04-11T02:44:15.910Z,957.27
2016-04-11T02:45:15.898Z,957.28
2016-04-11T02:46:15.901Z,957.29
2016-04-11T02:47:15.919Z,957.28
2016-04-11T02:48:15.922Z,957.25
2016-04-11T02:49:15.924Z,957.26
2016-04-11T02:50:15.926Z,957.25
2016-04-11T02:51:15.929Z,957.3
2016-04-11T02:52:15.932Z,957.26
2016-04-11T02:53:15.935Z,957.32
2016-04-11T02:54:15.937Z,957.34
2016-04-11T02:55:15.956Z,957.32
2016-04-11T02:56:15.958Z,957.3
2016-04-11T02:57:16.009Z,957.3
2016-04-11T02:58:15.964Z,957.3
2016-04-11T02:59:15.967Z,957.31
2016-04-11T03:00:15.970Z,957.32
2016-04-11T03:01:15.989Z,957.33
2016-04-11T03:02:15.991Z,957.34
2016-04-11T03:03:15.993Z,957.32
2016-04-11T03:04:15.996Z,957.33
2016-04-11T03:05:15.999Z,957.35
2016-04-11T03:06:16.002Z,957.37
2016-04-11T03:07:16.004Z,957.4
2016-04-11T03:08:16.022Z,957.38
2016-04-11T03:09:16.024Z,957.4
2016-04-11T03:10:16.027Z,957.41
2016-04-11T03:11:16.030Z,957.38
2016-04-11T03:12:16.033Z,957.42
2016-04-11T03:13:16.035Z,957.41
2016-04-11T03:14:16.039Z,957.42
2016-04-11T03:15:16.057Z,957.42
2016-04-11T03:16:16.060Z,957.39
2016-04-11T03:17:16.062Z,957.37
2016-04-11T03:18:16.065Z,957.41
2016-04-11T03:19:16.068Z,957.41
2016-04-11T03:20:16.070Z,957.39
2016-04-11T03:21:16.073Z,957.39
2016-04-11T03:22:16.091Z,957.36
2016-04-11T03:23:16.093Z,957.35
2016-04-11T03:24:16.096Z,957.35
2016-04-11T03:25:16.099Z,957.34
2016-04-11T03:26:16.101Z,957.35
2016-04-11T03:27:16.151Z,957.33
2016-04-11T03:28:16.107Z,957.35
2016-04-11T03:29:16.110Z,957.38
2016-04-11T03:30:16.128Z,957.37
2016-04-11T03:31:16.131Z,957.35
2016-04-11T03:32:16.133Z,957.35
2016-04-11T03:33:16.136Z,957.35
2016-04-11T03:34:16.139Z,957.38
2016-04-11T03:35:16.142Z,957.39
2016-04-11T03:36:16.160Z,957.38
2016-04-11T03:37:16.163Z,957.37
2016-04-11T03:38:16.165Z,957.37
2016-04-11T03:39:16.169Z,957.35
2016-04-11T03:40:16.171Z,957.34
2016-04-11T03:41:16.174Z,957.37
2016-04-11T03:42:16.192Z,957.36
2016-04-11T03:43:16.195Z,957.37
2016-04-11T03:44:16.182Z,957.36
2016-04-11T03:45:16.200Z,957.37
2016-04-11T03:46:16.202Z,957.36
2016-04-11T03:47:16.205Z,957.39
2016-04-11T03:48:16.208Z,957.36
2016-04-11T03:49:16.211Z,957.38
2016-04-11T03:50:16.213Z,957.34
2016-04-11T03:51:16.232Z,957.43
2016-04-11T03:52:16.234Z,957.39
2016-04-11T03:53:16.237Z,957.39
2016-04-11T03:54:16.240Z,957.38
2016-04-11T03:55:16.242Z,957.37
2016-04-11T03:56:16.245Z,957.38
2016-04-11T03:57:16.264Z,957.35
2016-04-11T03:58:16.267Z,957.38
2016-04-11T03:59:16.269Z,957.42
2016-04-11T04:00:16.272Z,957.4
2016-04-11T04:01:16.274Z,957.39
2016-04-11T04:02:16.278Z,957.46
2016-04-11T04:03:16.280Z,957.44
2016-04-11T04:04:16.283Z,957.42
2016-04-11T04:05:16.285Z,957.45
2016-04-11T04:06:16.303Z,957.47
2016-04-11T04:07:16.305Z,957.46
2016-04-11T04:08:16.309Z,957.45
2016-04-11T04:09:16.311Z,957.44
2016-04-11T04:10:16.314Z,957.46
2016-04-11T04:11:16.332Z,957.45
2016-04-11T04:12:16.320Z,957.45
2016-04-11T04:13:16.338Z,957.42
2016-04-11T04:14:16.341Z,957.46
2016-04-11T04:15:16.343Z,957.41
2016-04-11T04:16:16.346Z,957.42
2016-04-11T04:17:16.349Z,957.4
2016-04-11T04:18:16.352Z,957.43
2016-04-11T04:19:16.369Z,957.44
2016-04-11T04:20:16.372Z,957.4
2016-04-11T04:21:16.374Z,957.46
2016-04-11T04:22:16.377Z,957.43
2016-04-11T04:23:16.396Z,957.43
2016-04-11T04:24:16.416Z,957.49
2016-04-11T04:25:16.462Z,957.46
2016-04-11T04:26:16.525Z,957.47
2016-04-11T04:27:16.571Z,957.46
2016-04-11T04:28:16.618Z,957.5
2016-04-11T04:29:16.643Z,957.48
2016-04-11T04:30:16.677Z,957.43
2016-04-11T04:31:16.679Z,957.46
2016-04-11T04:32:16.699Z,957.47
2016-04-11T04:33:16.733Z,957.44
2016-04-11T04:34:16.743Z,957.45
2016-04-11T04:35:16.751Z,957.43
2016-04-11T04:36:16.760Z,957.47
2016-04-11T04:37:16.769Z,957.46
2016-04-11T04:38:16.777Z,957.46
2016-04-11T04:39:16.783Z,957.45
2016-04-11T04:40:16.787Z,957.46
2016-04-11T04:41:16.807Z,957.51
2016-04-11T04:42:16.812Z,957.5
2016-04-11T04:43:16.816Z,957.45
2016-04-11T04:44:16.820Z,957.44
2016-04-11T04:45:16.823Z,957.46
2016-04-11T04:46:16.826Z,957.45
2016-04-11T04:47:16.830Z,957.41
2016-04-11T04:48:16.834Z,957.46
2016-04-11T04:49:16.853Z,957.42
2016-04-11T04:50:16.856Z,957.44
2016-04-11T04:51:16.859Z,957.41
2016-04-11T04:52:16.862Z,957.4
2016-04-11T04:53:16.865Z,957.42
2016-04-11T04:54:16.868Z,957.46
2016-04-11T04:55:16.870Z,957.44
2016-04-11T04:56:16.873Z,957.45
2016-04-11T04:57:16.892Z,957.43
2016-04-11T04:58:16.895Z,957.44
2016-04-11T04:59:16.897Z,957.45
2016-04-11T05:00:16.900Z,957.43
2016-04-11T05:01:16.902Z,957.42
2016-04-11T05:02:16.921Z,957.44
2016-04-11T05:03:16.908Z,957.42
2016-04-11T05:04:16.926Z,957.45
2016-04-11T05:05:16.929Z,957.46
2016-04-11T05:06:16.931Z,957.45
2016-04-11T05:07:16.934Z,957.49
2016-04-11T05:08:16.936Z,957.5
2016-04-11T05:09:16.939Z,957.53
2016-04-11T05:10:16.942Z,957.55
2016-04-11T05:11:16.961Z,957.56
2016-04-11T05:12:16.963Z,957.56
2016-04-11T05:13:16.966Z,957.59
2016-04-11T05:14:16.968Z,957.56
2016-04-11T05:15:16.971Z,957.55
2016-04-11T05:16:16.989Z,957.58
2016-04-11T05:17:16.977Z,957.58
2016-04-11T05:18:16.994Z,957.57
2016-04-11T05:19:16.982Z,957.56
2016-04-11T05:20:17.000Z,957.57
2016-04-11T05:21:17.002Z,957.56
2016-04-11T05:22:17.005Z,957.57
2016-04-11T05:23:17.008Z,957.57
2016-04-11T05:24:17.010Z,957.58
2016-04-11T05:25:17.076Z,957.57
2016-04-11T05:26:17.016Z,957.59
2016-04-11T05:27:17.035Z,957.6
2016-04-11T05:28:17.038Z,957.61
2016-04-11T05:29:17.040Z,957.59
2016-04-11T05:30:17.059Z,957.59
2016-04-11T05:31:17.045Z,957.59
2016-04-11T05:32:17.048Z,957.61
2016-04-11T05:33:17.067Z,957.6
2016-04-11T05:34:17.069Z,957.63
2016-04-11T05:35:17.072Z,957.63
2016-04-11T05:36:17.075Z,957.61
2016-04-11T05:37:17.077Z,957.64
2016-04-11T05:38:17.080Z,957.64
2016-04-11T05:39:17.083Z,957.61
2016-04-11T05:40:17.100Z,957.62
2016-04-11T05:41:17.103Z,957.64
2016-04-11T05:42:17.107Z,957.64
2016-04-11T05:43:17.109Z,957.62
2016-04-11T05:44:17.112Z,957.62
2016-04-11T05:45:17.130Z,957.63
2016-04-11T05:46:17.117Z,957.64
2016-04-11T05:47:17.120Z,957.59
2016-04-11T05:48:17.138Z,957.6
2016-04-11T05:49:17.141Z,957.57
2016-04-11T05:50:17.143Z,957.6
2016-04-11T05:51:17.146Z,957.59
2016-04-11T05:52:17.165Z,957.62
2016-04-11T05:53:17.168Z,957.64
2016-04-11T05:54:17.170Z,957.59
2016-04-11T05:55:17.173Z,957.6
2016-04-11T05:56:17.176Z,957.62
2016-04-11T05:57:17.179Z,957.6
2016-04-11T05:58:17.181Z,957.61
2016-04-11T05:59:17.184Z,957.61
2016-04-11T06:00:17.202Z,957.64
2016-04-11T06:01:17.189Z,957.58
2016-04-11T06:02:17.207Z,957.59
2016-04-11T06:03:17.209Z,957.57
2016-04-11T06:04:17.212Z,957.59
2016-04-11T06:05:17.215Z,957.6
2016-04-11T06:06:17.218Z,957.62
2016-04-11T06:07:17.220Z,957.65
2016-04-11T06:08:17.224Z,957.66
2016-04-11T06:09:17.241Z,957.68
2016-04-11T06:10:17.244Z,957.71
2016-04-11T06:11:17.247Z,957.72
2016-04-11T06:12:17.250Z,957.68
2016-04-11T06:13:17.252Z,957.65
2016-04-11T06:14:17.255Z,957.7
2016-04-11T06:15:17.258Z,957.69
2016-04-11T06:16:17.276Z,957.66
2016-04-11T06:17:17.279Z,957.64
2016-04-11T06:18:17.281Z,957.69
2016-04-11T06:19:17.283Z,957.67
2016-04-11T06:20:17.287Z,957.71
2016-04-11T06:21:17.289Z,957.7
2016-04-11T06:22:17.291Z,957.67
2016-04-11T06:23:17.295Z,957.69
2016-04-11T06:24:17.313Z,957.72
2016-04-11T06:25:17.316Z,957.71
2016-04-11T06:26:17.319Z,957.74
2016-04-11T06:27:17.321Z,957.74
2016-04-11T06:28:17.324Z,957.77
2016-04-11T06:29:17.327Z,957.77
2016-04-11T06:30:17.329Z,957.74
2016-04-11T06:31:17.348Z,957.74
2016-04-11T06:32:17.351Z,957.73
2016-04-11T06:33:17.354Z,957.73
2016-04-11T06:34:17.356Z,957.75
2016-04-11T06:35:17.358Z,957.72
2016-04-11T06:36:17.362Z,957.74
2016-04-11T06:37:17.364Z,957.74
2016-04-11T06:38:17.366Z,957.73
2016-04-11T06:39:17.385Z,957.76
2016-04-11T06:40:17.387Z,957.76
2016-04-11T06:41:17.390Z,957.76
2016-04-11T06:42:17.393Z,957.72
2016-04-11T06:43:17.395Z,957.7
2016-04-11T06:44:17.414Z,957.73
2016-04-11T06:45:17.401Z,957.71
2016-04-11T06:46:17.419Z,957.65
2016-04-11T06:47:17.422Z,957.73
2016-04-11T06:48:17.425Z,957.7
2016-04-11T06:49:17.428Z,957.71
2016-04-11T06:50:17.430Z,957.71
2016-04-11T06:51:17.432Z,957.7
2016-04-11T06:52:17.452Z,957.73
2016-04-11T06:53:17.454Z,957.71
2016-04-11T06:54:17.456Z,957.69
2016-04-11T06:55:17.460Z,957.73
2016-04-11T06:56:17.462Z,957.75
2016-04-11T06:57:17.465Z,957.76
2016-04-11T06:58:17.483Z,957.76
2016-04-11T06:59:17.485Z,957.76
2016-04-11T07:00:17.488Z,957.78
2016-04-11T07:01:17.490Z,957.82
2016-04-11T07:02:17.493Z,957.76
2016-04-11T07:03:17.496Z,957.77
2016-04-11T07:04:17.499Z,957.77
2016-04-11T07:05:17.502Z,957.76
2016-04-11T07:06:17.504Z,957.75
2016-04-11T07:07:17.523Z,957.76
2016-04-11T07:08:17.526Z,957.8
2016-04-11T07:09:17.528Z,957.73
2016-04-11T07:10:17.531Z,957.77
2016-04-11T07:11:17.533Z,957.78
2016-04-11T07:12:17.536Z,957.73
2016-04-11T07:13:17.539Z,957.72
2016-04-11T07:14:17.556Z,957.73
2016-04-11T07:15:17.559Z,957.73
2016-04-11T07:16:17.562Z,957.69
2016-04-11T07:17:17.565Z,957.69
2016-04-11T07:18:17.568Z,957.71
2016-04-11T07:19:17.570Z,957.67
2016-04-11T07:20:17.573Z,957.66
2016-04-11T07:21:17.591Z,957.68
2016-04-11T07:22:17.594Z,957.66
2016-04-11T07:23:17.597Z,957.73
2016-04-11T07:24:17.599Z,957.66
2016-04-11T07:25:17.604Z,957.69
2016-04-11T07:26:17.607Z,957.68
2016-04-11T07:27:17.626Z,957.68
2016-04-11T07:28:17.628Z,957.69
2016-04-11T07:29:17.631Z,957.7
2016-04-11T07:30:17.633Z,957.66
2016-04-11T07:31:17.636Z,957.65
2016-04-11T07:32:17.640Z,957.66
2016-04-11T07:33:17.642Z,957.64
2016-04-11T07:34:17.659Z,957.67
2016-04-11T07:35:17.662Z,957.69
2016-04-11T07:36:17.665Z,957.66
2016-04-11T07:37:17.667Z,957.65
2016-04-11T07:38:17.670Z,957.65
2016-04-11T07:39:17.673Z,957.67
2016-04-11T07:40:17.676Z,957.65
2016-04-11T07:41:17.678Z,957.69
2016-04-11T07:42:17.681Z,957.7
2016-04-11T07:43:17.700Z,957.71
2016-04-11T07:44:17.686Z,957.73
2016-04-11T07:45:17.689Z,957.72
2016-04-11T07:46:17.708Z,957.74
2016-04-11T07:47:17.710Z,957.77
2016-04-11T07:48:17.714Z,957.75
2016-04-11T07:49:17.716Z,957.79
2016-04-11T07:50:17.719Z,957.77
2016-04-11T07:51:17.721Z,957.76
2016-04-11T07:52:17.754Z,957.77
2016-04-11T07:53:17.742Z,957.74
2016-04-11T07:54:17.744Z,957.75
2016-04-11T07:55:17.747Z,957.78
2016-04-11T07:56:17.750Z,957.75
2016-04-11T07:57:17.752Z,957.77
2016-04-11T07:58:17.755Z,957.78
2016-04-11T07:59:17.774Z,957.76
2016-04-11T08:00:17.776Z,957.76
2016-04-11T08:01:17.779Z,957.79
2016-04-11T08:02:17.782Z,957.77
2016-04-11T08:03:17.785Z,957.84
2016-04-11T08:04:17.787Z,957.79
2016-04-11T08:05:17.790Z,957.84
2016-04-11T08:06:17.808Z,957.84
2016-04-11T08:07:17.811Z,957.84
2016-04-11T08:08:17.814Z,957.84
2016-04-11T08:09:17.821Z,957.83
2016-04-11T08:10:17.825Z,957.8
2016-04-11T08:11:17.827Z,957.8
2016-04-11T08:12:17.829Z,957.8
2016-04-11T08:13:17.957Z,957.76
2016-04-11T08:14:17.835Z,957.76
2016-04-11T08:15:17.853Z,957.78
2016-04-11T08:16:17.855Z,957.8
2016-04-11T08:17:17.858Z,957.76
2016-04-11T08:18:17.866Z,957.77
2016-04-11T08:19:17.868Z,957.79
2016-04-11T08:20:17.872Z,957.76
2016-04-11T08:21:17.874Z,957.82
2016-04-11T08:22:17.892Z,957.79
2016-04-11T08:23:17.895Z,957.81
2016-04-11T08:24:17.897Z,957.79
2016-04-11T08:25:17.901Z,957.79
2016-04-11T08:26:17.903Z,957.83
2016-04-11T08:27:17.906Z,957.77
2016-04-11T08:28:18.034Z,957.8
2016-04-11T08:29:17.926Z,957.75
2016-04-11T08:30:17.929Z,957.73
2016-04-11T08:31:17.932Z,957.73
2016-04-11T08:32:17.951Z,957.73
2016-04-11T08:33:17.937Z,957.69
2016-04-11T08:34:17.940Z,957.77
2016-04-11T08:35:17.959Z,957.77
2016-04-11T08:36:17.961Z,957.78
2016-04-11T08:37:17.964Z,957.75
2016-04-11T08:38:17.967Z,957.78
2016-04-11T08:39:17.985Z,957.76
2016-04-11T08:40:17.972Z,957.74
2016-04-11T08:41:17.975Z,957.71
2016-04-11T08:42:17.993Z,957.71
2016-04-11T08:43:18.011Z,957.7
2016-04-11T08:44:17.999Z,957.7
2016-04-11T08:45:18.001Z,957.7
2016-04-11T08:46:18.019Z,957.72
2016-04-11T08:47:18.022Z,957.76
2016-04-11T08:48:18.024Z,957.74
2016-04-11T08:49:18.027Z,957.71
2016-04-11T08:50:18.046Z,957.67
2016-04-11T08:51:18.033Z,957.7
2016-04-11T08:52:18.051Z,957.74
2016-04-11T08:53:18.068Z,957.71
2016-04-11T08:54:18.057Z,957.68
2016-04-11T08:55:18.059Z,957.65
2016-04-11T08:56:18.062Z,957.7
2016-04-11T08:57:18.064Z,957.61
2016-04-11T08:58:18.114Z,957.63
2016-04-11T08:59:18.085Z,957.61
2016-04-11T09:00:18.087Z,957.61
2016-04-11T09:01:18.091Z,957.6
2016-04-11T09:02:18.093Z,957.57
2016-04-11T09:03:18.112Z,957.59
2016-04-11T09:04:18.114Z,957.58
2016-04-11T09:05:18.117Z,957.55
2016-04-11T09:06:18.120Z,957.52
2016-04-11T09:07:18.122Z,957.54
2016-04-11T09:08:18.156Z,957.55
2016-04-11T09:09:18.159Z,957.55
2016-04-11T09:10:18.147Z,957.53
2016-04-11T09:11:18.149Z,957.56
2016-04-11T09:12:18.152Z,957.52
2016-04-11T09:13:18.170Z,957.53
2016-04-11T09:14:18.172Z,957.5
2016-04-11T09:15:18.175Z,957.49
2016-04-11T09:16:18.178Z,957.5
2016-04-11T09:17:18.196Z,957.49
2016-04-11T09:18:18.183Z,957.44
2016-04-11T09:19:18.186Z,957.48
2016-04-11T09:20:18.204Z,957.47
2016-04-11T09:21:18.223Z,957.51
2016-04-11T09:22:18.210Z,957.48
2016-04-11T09:23:18.213Z,957.44
2016-04-11T09:24:18.231Z,957.51
2016-04-11T09:25:18.234Z,957.44
2016-04-11T09:26:18.237Z,957.46
2016-04-11T09:27:18.254Z,957.39
2016-04-11T09:28:18.257Z,957.42
2016-04-11T09:29:18.276Z,957.42
2016-04-11T09:30:18.263Z,957.44
2016-04-11T09:31:18.265Z,957.46
2016-04-11T09:32:18.268Z,957.43
2016-04-11T09:33:18.286Z,957.43
2016-04-11T09:34:18.320Z,957.38
2016-04-11T09:35:18.307Z,957.37
2016-04-11T09:36:18.310Z,957.35
2016-04-11T09:37:18.297Z,957.34
2016-04-11T09:38:18.315Z,957.33
2016-04-11T09:39:18.318Z,957.29
2016-04-11T09:40:18.320Z,957.29
2016-04-11T09:41:18.323Z,957.27
2016-04-11T09:42:18.325Z,957.27
2016-04-11T09:43:18.345Z,957.27
2016-04-11T09:44:18.347Z,957.27
2016-04-11T09:45:18.365Z,957.26
2016-04-11T09:46:18.383Z,957.23
2016-04-11T09:47:18.355Z,957.24
2016-04-11T09:48:18.358Z,957.25
2016-04-11T09:49:18.377Z,957.28
2016-04-11T09:50:18.379Z,957.27
2016-04-11T09:51:18.397Z,957.34
2016-04-11T09:52:18.385Z,957.25
2016-04-11T09:53:18.418Z,957.33
2016-04-11T09:54:18.405Z,957.27
2016-04-11T09:55:18.439Z,957.31
2016-04-11T09:56:18.411Z,957.28
2016-04-11T09:57:18.413Z,957.28
2016-04-11T09:58:18.431Z,957.3
2016-04-11T09:59:18.434Z,957.3
2016-04-11T10:00:18.437Z,957.28
2016-04-11T10:01:18.440Z,957.26
2016-04-11T10:02:18.458Z,957.26
2016-04-11T10:03:18.461Z,957.23
2016-04-11T10:04:18.463Z,957.28
2016-04-11T10:05:18.467Z,957.23
2016-04-11T10:06:18.484Z,957.2
2016-04-11T10:07:18.487Z,957.17
2016-04-11T10:08:18.489Z,957.15
2016-04-11T10:09:18.493Z,957.1
2016-04-11T10:10:18.495Z,957.15
2016-04-11T10:11:18.514Z,957.11
2016-04-11T10:12:18.516Z,957.06
2016-04-11T10:13:18.519Z,957.07
2016-04-11T10:14:18.521Z,956.98
2016-04-11T10:15:18.539Z,957
2016-04-11T10:16:18.542Z,956.98
2016-04-11T10:17:18.544Z,957.02
2016-04-11T10:18:18.547Z,956.97
2016-04-11T10:19:18.550Z,956.95
2016-04-11T10:20:18.553Z,956.9
2016-04-11T10:21:18.571Z,956.94
2016-04-11T10:22:18.574Z,956.9
2016-04-11T10:23:18.577Z,956.93
2016-04-11T10:24:18.579Z,956.91
2016-04-11T10:25:18.598Z,956.91
2016-04-11T10:26:18.601Z,956.85
2016-04-11T10:27:18.603Z,956.81
2016-04-11T10:28:18.607Z,956.8
2016-04-11T10:29:18.624Z,956.76
2016-04-11T10:30:18.627Z,956.74
2016-04-11T10:31:18.629Z,956.77
2016-04-11T10:32:18.648Z,956.69
2016-04-11T10:33:18.651Z,956.73
2016-04-11T10:34:18.654Z,956.7
2016-04-11T10:35:18.656Z,956.68
2016-04-11T10:36:18.659Z,956.66
2016-04-11T10:37:18.661Z,956.63
2016-04-11T10:38:18.664Z,956.59
2016-04-11T10:39:18.667Z,956.56
2016-04-11T10:40:18.670Z,956.65
2016-04-11T10:41:18.688Z,956.56
2016-04-11T10:42:18.691Z,956.59
2016-04-11T10:43:18.678Z,956.59
2016-04-11T10:44:18.696Z,956.61
2016-04-11T10:45:18.699Z,956.61
2016-04-11T10:46:18.686Z,956.55
2016-04-11T10:47:18.688Z,956.54
2016-04-11T10:48:18.691Z,956.58
2016-04-11T10:49:18.694Z,956.63
2016-04-11T10:50:18.712Z,956.66
2016-04-11T10:51:18.699Z,956.62
2016-04-11T10:52:18.702Z,956.66
2016-04-11T10:53:18.705Z,956.65
2016-04-11T10:54:18.723Z,956.75
2016-04-11T10:55:18.726Z,956.74
2016-04-11T10:56:18.728Z,956.72
2016-04-11T10:57:18.732Z,956.72
2016-04-11T10:58:18.734Z,956.71
2016-04-11T10:59:18.737Z,956.74
2016-04-11T11:00:18.739Z,956.71
2016-04-11T11:01:18.757Z,956.78
2016-04-11T11:02:18.759Z,956.79
2016-04-11T11:03:18.763Z,956.8
2016-04-11T11:04:18.766Z,956.79
2016-04-11T11:05:19.159Z,956.82
2016-04-11T11:06:18.786Z,956.79
2016-04-11T11:07:18.789Z,956.76
2016-04-11T11:08:18.791Z,956.7
2016-04-11T11:09:18.795Z,956.7
2016-04-11T11:10:18.798Z,956.66
2016-04-11T11:11:18.800Z,956.63
2016-04-11T11:12:18.817Z,956.6
2016-04-11T11:13:18.821Z,956.63
2016-04-11T11:14:18.823Z,956.63
2016-04-11T11:15:18.826Z,956.62
2016-04-11T11:16:18.844Z,956.62
2016-04-11T11:17:18.848Z,956.59
2016-04-11T11:18:18.850Z,956.62
2016-04-11T11:19:18.852Z,956.57
2016-04-11T11:20:18.871Z,956.57
2016-04-11T11:21:18.874Z,956.54
2016-04-11T11:22:18.876Z,956.53
2016-04-11T11:23:18.879Z,956.47
2016-04-11T11:24:18.897Z,956.53
2016-04-11T11:25:18.900Z,956.44
2016-04-11T11:26:18.902Z,956.42
2016-04-11T11:27:18.905Z,956.42
2016-04-11T11:28:18.908Z,956.43
2016-04-11T11:29:18.927Z,956.44
2016-04-11T11:30:18.929Z,956.35
2016-04-11T11:31:18.932Z,956.4
2016-04-11T11:32:18.934Z,956.39
2016-04-11T11:33:18.937Z,956.39
2016-04-11T11:34:18.955Z,956.41
2016-04-11T11:35:18.958Z,956.45
2016-04-11T11:36:18.961Z,956.4
2016-04-11T11:37:18.964Z,956.34
2016-04-11T11:38:18.982Z,956.34
2016-04-11T11:39:18.984Z,956.33
2016-04-11T11:40:18.987Z,956.34
2016-04-11T11:41:18.990Z,956.29
2016-04-11T11:42:18.992Z,956.27
2016-04-11T11:43:19.011Z,956.17
2016-04-11T11:44:19.014Z,956.17
2016-04-11T11:45:19.017Z,956.19
2016-04-11T11:46:19.019Z,956.17
2016-04-11T11:47:19.022Z,956.17
2016-04-11T11:48:19.025Z,956.17
2016-04-11T11:49:19.042Z,956.09
2016-04-11T11:50:19.045Z,956.09
2016-04-11T11:51:19.047Z,956.08
2016-04-11T11:52:19.051Z,956.11
2016-04-11T11:53:19.053Z,956.15
2016-04-11T11:54:19.072Z,956.16
2016-04-11T11:55:19.074Z,956.17
2016-04-11T11:56:19.077Z,956.25
2016-04-11T11:57:19.080Z,956.18
2016-04-11T11:58:19.082Z,956.17
2016-04-11T11:59:19.085Z,956.15
2016-04-11T12:00:19.087Z,956.13
2016-04-11T12:01:19.091Z,956.08
2016-04-11T12:02:19.109Z,956.08
2016-04-11T12:03:19.111Z,956.08
2016-04-11T12:04:19.115Z,956.1
2016-04-11T12:05:19.133Z,956.11
2016-04-11T12:06:19.120Z,956.1
2016-04-11T12:07:19.137Z,956.09
2016-04-11T12:08:19.141Z,956.04
2016-04-11T12:09:19.142Z,956.09
2016-04-11T12:10:19.146Z,956.12
2016-04-11T12:11:19.148Z,956.14
2016-04-11T12:12:19.151Z,956.12
2016-04-11T12:13:19.170Z,956.11
2016-04-11T12:14:19.173Z,956.12
2016-04-11T12:15:19.175Z,956.07
2016-04-11T12:16:19.177Z,956.12
2016-04-11T12:17:19.197Z,956.13
2016-04-11T12:18:19.199Z,956.04
2016-04-11T12:19:19.202Z,956.06
2016-04-11T12:20:19.219Z,956.12
2016-04-11T12:21:19.222Z,956.1
2016-04-11T12:22:19.225Z,956.06
2016-04-11T12:23:19.228Z,956.11
2016-04-11T12:24:19.246Z,956.08
2016-04-11T12:25:19.233Z,956.05
2016-04-11T12:26:19.252Z,956.12
2016-04-11T12:27:19.254Z,956.1
2016-04-11T12:28:19.257Z,956.03
2016-04-11T12:29:19.259Z,956.04
2016-04-11T12:30:19.278Z,956.01
2016-04-11T12:31:19.280Z,955.97